sensor_id;sensor_type;location;lat;lon;timestamp;pressure;altitude;pressure_sealevel;temperature;humidity
5455;BME280;2750;49.050;9.250;2023-04-04T00:03:55;99712.34;;;3.59;65.61
5455;BME280;2750;49.050;9.250;2023-04-04T00:08:58;99702.03;;;3.77;66.06
5455;BME280;2750;49.050;9.250;2023-04-04T00:13:59;99696.16;;;3.45;65.90
5455;BME280;2750;49.050;9.250;2023-04-04T00:19:01;99698.66;;;3.57;65.61
5455;BME280;2750;49.050;9.250;2023-04-04T00:24:05;99692.75;;;3.38;66.23
5455;BME280;2750;49.050;9.250;2023-04-04T00:29:06;99698.75;;;3.38;65.93
5455;BME280;2750;49.050;9.250;2023-04-04T00:34:08;99687.66;;;3.29;66.00
5455;BME280;2750;49.050;9.250;2023-04-04T00:39:11;99694.53;;;3.04;66.37
5455;BME280;2750;49.050;9.250;2023-04-04T00:44:12;99691.97;;;3.16;66.57
5455;BME280;2750;49.050;9.250;2023-04-04T00:49:14;99683.47;;;3.02;66.68
5455;BME280;2750;49.050;9.250;2023-04-04T00:54:17;99669.81;;;2.89;68.13
5455;BME280;2750;49.050;9.250;2023-04-04T00:59:18;99667.22;;;3.05;67.42
5455;BME280;2750;49.050;9.250;2023-04-04T01:04:21;99671.50;;;2.80;68.13
5455;BME280;2750;49.050;9.250;2023-04-04T01:09:24;99678.38;;;2.60;69.63
5455;BME280;2750;49.050;9.250;2023-04-04T01:14:26;99683.47;;;2.41;70.07
5455;BME280;2750;49.050;9.250;2023-04-04T01:19:31;99678.31;;;2.19;69.94
5455;BME280;2750;49.050;9.250;2023-04-04T01:24:35;99663.81;;;2.16;70.00
5455;BME280;2750;49.050;9.250;2023-04-04T01:29:40;99675.69;;;1.75;70.86
5455;BME280;2750;49.050;9.250;2023-04-04T01:34:44;99665.44;;;1.81;71.85
5455;BME280;2750;49.050;9.250;2023-04-04T01:39:51;99664.56;;;1.61;72.33
5455;BME280;2750;49.050;9.250;2023-04-04T01:44:55;99669.63;;;1.49;73.85
5455;BME280;2750;49.050;9.250;2023-04-04T01:49:57;99666.28;;;1.74;72.69
5455;BME280;2750;49.050;9.250;2023-04-04T01:54:58;99657.78;;;1.78;73.52
5455;BME280;2750;49.050;9.250;2023-04-04T02:00:01;99656.06;;;1.65;73.01
5455;BME280;2750;49.050;9.250;2023-04-04T02:05:05;99669.63;;;1.49;74.21
5455;BME280;2750;49.050;9.250;2023-04-04T02:10:07;99664.47;;;1.39;73.29
5455;BME280;2750;49.050;9.250;2023-04-04T02:15:10;99659.34;;;1.42;74.30
5455;BME280;2750;49.050;9.250;2023-04-04T02:20:12;99661.78;;;1.12;74.37
5455;BME280;2750;49.050;9.250;2023-04-04T02:25:13;99648.97;;;1.03;75.18
5455;BME280;2750;49.050;9.250;2023-04-04T02:30:16;99654.16;;;1.21;75.32
5455;BME280;2750;49.050;9.250;2023-04-04T02:35:18;99660.03;;;1.08;75.16
5455;BME280;2750;49.050;9.250;2023-04-04T02:40:20;99654.25;;;1.39;76.01
5455;BME280;2750;49.050;9.250;2023-04-04T02:45:23;99650.06;;;1.69;75.38
5455;BME280;2750;49.050;9.250;2023-04-04T02:50:24;99647.50;;;1.66;75.34
5455;BME280;2750;49.050;9.250;2023-04-04T02:55:26;99646.66;;;1.70;74.29
5455;BME280;2750;49.050;9.250;2023-04-04T03:00:29;99644.88;;;1.46;74.84
5455;BME280;2750;49.050;9.250;2023-04-04T03:05:30;99649.19;;;1.55;73.74
5455;BME280;2750;49.050;9.250;2023-04-04T03:10:32;99644.00;;;1.39;74.92
5455;BME280;2750;49.050;9.250;2023-04-04T03:15:35;99645.78;;;1.53;75.29
5455;BME280;2750;49.050;9.250;2023-04-04T03:20:36;99649.91;;;1.25;74.68
5455;BME280;2750;49.050;9.250;2023-04-04T03:25:38;99641.31;;;1.08;75.19
5455;BME280;2750;49.050;9.250;2023-04-04T03:30:41;99645.53;;;1.01;76.58
5455;BME280;2750;49.050;9.250;2023-04-04T03:35:43;99636.19;;;1.06;75.72
5455;BME280;2750;49.050;9.250;2023-04-04T03:40:44;99637.84;;;0.95;76.05
5455;BME280;2750;49.050;9.250;2023-04-04T03:45:47;99638.66;;;0.91;77.11
5455;BME280;2750;49.050;9.250;2023-04-04T03:50:48;99639.31;;;0.63;77.72
5455;BME280;2750;49.050;9.250;2023-04-04T03:55:50;99642.00;;;0.79;77.99
5455;BME280;2750;49.050;9.250;2023-04-04T04:00:54;99645.91;;;0.30;79.16
5455;BME280;2750;49.050;9.250;2023-04-04T04:05:55;99652.91;;;0.56;79.08
5455;BME280;2750;49.050;9.250;2023-04-04T04:11:02;99647.50;;;0.21;79.46
5455;BME280;2750;49.050;9.250;2023-04-04T04:16:06;99651.72;;;0.17;80.13
5455;BME280;2750;49.050;9.250;2023-04-04T04:21:07;99658.63;;;0.29;79.87
5455;BME280;2750;49.050;9.250;2023-04-04T04:26:09;99650.34;;;0.56;79.44
5455;BME280;2750;49.050;9.250;2023-04-04T04:31:12;99648.50;;;0.39;79.48
5455;BME280;2750;49.050;9.250;2023-04-04T04:36:14;99658.84;;;0.58;79.01
5455;BME280;2750;49.050;9.250;2023-04-04T04:41:15;99654.59;;;0.55;79.03
5455;BME280;2750;49.050;9.250;2023-04-04T04:46:18;99651.13;;;0.50;78.55
5455;BME280;2750;49.050;9.250;2023-04-04T04:51:19;99659.69;;;0.55;78.88
5455;BME280;2750;49.050;9.250;2023-04-04T04:56:21;99653.50;;;0.23;79.67
5455;BME280;2750;49.050;9.250;2023-04-04T05:01:24;99658.59;;;0.24;78.86
5455;BME280;2750;49.050;9.250;2023-04-04T05:06:26;99661.22;;;0.35;79.65
5455;BME280;2750;49.050;9.250;2023-04-04T05:11:28;99660.66;;;0.71;79.57
5455;BME280;2750;49.050;9.250;2023-04-04T05:16:31;99662.59;;;1.08;77.93
5455;BME280;2750;49.050;9.250;2023-04-04T05:21:33;99656.94;;;1.82;75.23
5455;BME280;2750;49.050;9.250;2023-04-04T05:26:35;99655.28;;;2.26;73.79
5455;BME280;2750;49.050;9.250;2023-04-04T05:31:37;99656.16;;;2.50;72.61
5455;BME280;2750;49.050;9.250;2023-04-04T05:36:39;99657.03;;;2.29;72.01
5455;BME280;2750;49.050;9.250;2023-04-04T05:41:41;99664.63;;;1.88;73.92
5455;BME280;2750;49.050;9.250;2023-04-04T05:46:44;99651.78;;;1.70;74.84
5455;BME280;2750;49.050;9.250;2023-04-04T05:51:45;99664.56;;;1.65;75.72
5455;BME280;2750;49.050;9.250;2023-04-04T05:56:47;99657.75;;;3.26;71.37
5455;BME280;2750;49.050;9.250;2023-04-04T06:01:49;99658.84;;;4.43;67.51
5455;BME280;2750;49.050;9.250;2023-04-04T06:06:51;99649.78;;;4.98;64.89
5455;BME280;2750;49.050;9.250;2023-04-04T06:11:53;99652.38;;;5.70;62.92
5455;BME280;2750;49.050;9.250;2023-04-04T06:16:56;99659.34;;;5.62;62.10
5455;BME280;2750;49.050;9.250;2023-04-04T06:21:57;99660.84;;;5.03;63.23
5455;BME280;2750;49.050;9.250;2023-04-04T06:26:59;99659.94;;;4.04;64.85
5455;BME280;2750;49.050;9.250;2023-04-04T06:32:02;99669.78;;;4.64;65.42
5455;BME280;2750;49.050;9.250;2023-04-04T06:37:04;99664.72;;;4.55;65.33
5455;BME280;2750;49.050;9.250;2023-04-04T06:42:06;99670.94;;;4.28;65.74
5455;BME280;2750;49.050;9.250;2023-04-04T06:47:09;99661.75;;;3.90;65.50
5455;BME280;2750;49.050;9.250;2023-04-04T06:52:10;99659.84;;;4.20;65.58
5455;BME280;2750;49.050;9.250;2023-04-04T06:57:12;99659.09;;;4.05;64.75
5455;BME280;2750;49.050;9.250;2023-04-04T07:02:15;99650.50;;;4.07;64.04
5455;BME280;2750;49.050;9.250;2023-04-04T07:07:16;99653.31;;;4.85;63.24
5455;BME280;2750;49.050;9.250;2023-04-04T07:12:18;99651.13;;;5.33;60.96
5455;BME280;2750;49.050;9.250;2023-04-04T07:17:21;99650.81;;;5.58;60.58
5455;BME280;2750;49.050;9.250;2023-04-04T07:22:22;99643.31;;;6.62;57.16
5455;BME280;2750;49.050;9.250;2023-04-04T07:27:24;99646.53;;;7.64;53.98
5455;BME280;2750;49.050;9.250;2023-04-04T07:32:27;99650.41;;;8.23;51.91
5455;BME280;2750;49.050;9.250;2023-04-04T07:37:28;99644.78;;;9.10;52.15
5455;BME280;2750;49.050;9.250;2023-04-04T07:42:30;99640.25;;;9.49;50.58
5455;BME280;2750;49.050;9.250;2023-04-04T07:47:33;99646.53;;;9.10;50.04
5455;BME280;2750;49.050;9.250;2023-04-04T07:52:35;99634.31;;;9.46;49.51
5455;BME280;2750;49.050;9.250;2023-04-04T07:57:37;99646.94;;;8.95;50.52
5455;BME280;2750;49.050;9.250;2023-04-04T08:02:42;99638.06;;;8.36;50.52
5455;BME280;2750;49.050;9.250;2023-04-04T08:07:44;99639.91;;;8.31;50.15
5455;BME280;2750;49.050;9.250;2023-04-04T08:12:45;99634.50;;;8.75;51.13
5455;BME280;2750;49.050;9.250;2023-04-04T08:17:49;99636.59;;;9.56;49.50
5455;BME280;2750;49.050;9.250;2023-04-04T08:22:50;99623.09;;;9.15;49.19
5455;BME280;2750;49.050;9.250;2023-04-04T08:27:52;99634.78;;;8.28;51.65
5455;BME280;2750;49.050;9.250;2023-04-04T08:32:55;99642.53;;;9.60;49.55
5455;BME280;2750;49.050;9.250;2023-04-04T08:37:56;99624.50;;;9.57;48.83
5455;BME280;2750;49.050;9.250;2023-04-04T08:42:58;99636.84;;;10.06;49.13
5455;BME280;2750;49.050;9.250;2023-04-04T08:48:02;99638.47;;;10.08;49.53
5455;BME280;2750;49.050;9.250;2023-04-04T08:53:06;99625.28;;;11.20;46.67
5455;BME280;2750;49.050;9.250;2023-04-04T08:58:08;99624.78;;;11.81;46.45
5455;BME280;2750;49.050;9.250;2023-04-04T09:03:14;99627.94;;;9.57;47.46
5455;BME280;2750;49.050;9.250;2023-04-04T09:08:19;99623.19;;;9.42;47.52
5455;BME280;2750;49.050;9.250;2023-04-04T09:13:20;99626.69;;;10.00;48.13
5455;BME280;2750;49.050;9.250;2023-04-04T09:18:23;99621.41;;;9.74;47.71
5455;BME280;2750;49.050;9.250;2023-04-04T09:23:25;99615.56;;;10.77;47.13
5455;BME280;2750;49.050;9.250;2023-04-04T09:28:27;99618.75;;;11.10;46.94
5455;BME280;2750;49.050;9.250;2023-04-04T09:33:30;99619.28;;;10.94;46.50
5455;BME280;2750;49.050;9.250;2023-04-04T09:38:35;99618.56;;;10.38;46.33
5455;BME280;2750;49.050;9.250;2023-04-04T09:43:38;99621.28;;;8.86;48.07
5455;BME280;2750;49.050;9.250;2023-04-04T09:48:47;99618.25;;;10.21;47.25
5455;BME280;2750;49.050;9.250;2023-04-04T09:53:49;99612.03;;;9.09;48.26
5455;BME280;2750;49.050;9.250;2023-04-04T09:58:52;99611.69;;;8.89;49.56
5455;BME280;2750;49.050;9.250;2023-04-04T10:03:56;99619.47;;;9.51;49.61
5455;BME280;2750;49.050;9.250;2023-04-04T10:08:58;99612.53;;;10.38;47.08
5455;BME280;2750;49.050;9.250;2023-04-04T10:14:01;99614.28;;;8.89;47.88
5455;BME280;2750;49.050;9.250;2023-04-04T10:19:04;99613.13;;;7.95;49.99
5455;BME280;2750;49.050;9.250;2023-04-04T10:24:06;99603.00;;;9.83;47.90
5455;BME280;2750;49.050;9.250;2023-04-04T10:29:09;99592.34;;;9.35;48.40
5455;BME280;2750;49.050;9.250;2023-04-04T10:34:18;99602.13;;;8.59;50.70
5455;BME280;2750;49.050;9.250;2023-04-04T10:39:25;99598.63;;;8.94;50.42
5455;BME280;2750;49.050;9.250;2023-04-04T10:44:28;99593.44;;;9.55;48.88
5455;BME280;2750;49.050;9.250;2023-04-04T10:49:34;99586.41;;;9.31;48.94
5455;BME280;2750;49.050;9.250;2023-04-04T10:54:37;99585.53;;;8.68;49.76
5455;BME280;2750;49.050;9.250;2023-04-04T10:59:56;99597.91;;;10.07;47.83
5455;BME280;2750;49.050;9.250;2023-04-04T11:05:09;99581.44;;;9.24;49.01
5455;BME280;2750;49.050;9.250;2023-04-04T11:10:15;99583.91;;;10.15;47.83
5455;BME280;2750;49.050;9.250;2023-04-04T11:15:20;99569.53;;;10.31;46.74
5455;BME280;2750;49.050;9.250;2023-04-04T11:20:30;99570.38;;;10.03;46.93
5455;BME280;2750;49.050;9.250;2023-04-04T11:25:34;99564.19;;;9.23;48.90
5455;BME280;2750;49.050;9.250;2023-04-04T11:30:37;99576.41;;;8.17;50.70
5455;BME280;2750;49.050;9.250;2023-04-04T11:35:48;99572.31;;;8.78;50.73
5455;BME280;2750;49.050;9.250;2023-04-04T11:40:53;99564.63;;;9.38;49.89
5455;BME280;2750;49.050;9.250;2023-04-04T11:46:04;99553.44;;;8.05;51.39
5455;BME280;2750;49.050;9.250;2023-04-04T11:51:09;99566.28;;;8.45;51.07
5455;BME280;2750;49.050;9.250;2023-04-04T11:56:14;99560.03;;;8.54;50.43
5455;BME280;2750;49.050;9.250;2023-04-04T12:01:16;99555.63;;;8.22;51.67
5455;BME280;2750;49.050;9.250;2023-04-04T12:06:19;99545.09;;;8.65;52.61
5455;BME280;2750;49.050;9.250;2023-04-04T12:11:23;99540.78;;;8.96;52.35
5455;BME280;2750;49.050;9.250;2023-04-04T12:16:26;99543.50;;;8.92;51.68
5455;BME280;2750;49.050;9.250;2023-04-04T12:21:31;99556.03;;;8.42;50.97
5455;BME280;2750;49.050;9.250;2023-04-04T12:26:33;99537.44;;;8.93;51.19
5455;BME280;2750;49.050;9.250;2023-04-04T12:31:35;99530.28;;;9.01;51.34
5455;BME280;2750;49.050;9.250;2023-04-04T12:36:39;99532.97;;;8.98;52.14
5455;BME280;2750;49.050;9.250;2023-04-04T12:41:47;99529.66;;;8.62;51.81
5455;BME280;2750;49.050;9.250;2023-04-04T12:46:49;99520.44;;;8.16;52.09
5455;BME280;2750;49.050;9.250;2023-04-04T12:51:53;99516.88;;;9.18;51.02
5455;BME280;2750;49.050;9.250;2023-04-04T12:56:56;99513.19;;;9.26;51.08
5455;BME280;2750;49.050;9.250;2023-04-04T13:01:59;99496.94;;;8.90;52.38
5455;BME280;2750;49.050;9.250;2023-04-04T13:07:03;99495.72;;;9.03;52.09
5455;BME280;2750;49.050;9.250;2023-04-04T13:12:05;99494.22;;;8.96;50.68
5455;BME280;2750;49.050;9.250;2023-04-04T13:17:08;99491.72;;;9.23;50.56
5455;BME280;2750;49.050;9.250;2023-04-04T13:22:11;99485.09;;;9.12;52.00
5455;BME280;2750;49.050;9.250;2023-04-04T13:27:12;99482.03;;;9.57;51.50
5455;BME280;2750;49.050;9.250;2023-04-04T13:32:14;99484.38;;;9.65;51.79
5455;BME280;2750;49.050;9.250;2023-04-04T13:37:17;99469.69;;;9.37;51.21
5455;BME280;2750;49.050;9.250;2023-04-04T13:42:19;99465.66;;;9.81;51.89
5455;BME280;2750;49.050;9.250;2023-04-04T13:47:22;99469.19;;;9.52;51.04
5455;BME280;2750;49.050;9.250;2023-04-04T13:52:27;99465.28;;;9.67;50.80
5455;BME280;2750;49.050;9.250;2023-04-04T13:57:29;99455.94;;;10.88;50.64
5455;BME280;2750;49.050;9.250;2023-04-04T14:02:30;99461.13;;;10.40;50.70
5455;BME280;2750;49.050;9.250;2023-04-04T14:07:36;99457.81;;;10.11;50.75
5455;BME280;2750;49.050;9.250;2023-04-04T14:12:38;99460.59;;;9.78;51.29
5455;BME280;2750;49.050;9.250;2023-04-04T14:17:39;99454.50;;;10.05;51.31
5455;BME280;2750;49.050;9.250;2023-04-04T14:22:42;99441.88;;;9.96;50.89
5455;BME280;2750;49.050;9.250;2023-04-04T14:27:44;99448.31;;;10.36;50.66
5455;BME280;2750;49.050;9.250;2023-04-04T14:32:45;99449.28;;;10.07;51.19
5455;BME280;2750;49.050;9.250;2023-04-04T14:37:48;99457.22;;;10.02;51.77
5455;BME280;2750;49.050;9.250;2023-04-04T14:42:50;99443.66;;;10.21;50.75
5455;BME280;2750;49.050;9.250;2023-04-04T14:47:51;99447.44;;;10.60;50.13
5455;BME280;2750;49.050;9.250;2023-04-04T14:52:54;99442.97;;;10.88;50.97
5455;BME280;2750;49.050;9.250;2023-04-04T14:57:55;99444.75;;;10.86;50.07
5455;BME280;2750;49.050;9.250;2023-04-04T15:02:57;99442.13;;;10.63;49.82
5455;BME280;2750;49.050;9.250;2023-04-04T15:08:00;99419.78;;;10.59;49.71
5455;BME280;2750;49.050;9.250;2023-04-04T15:13:01;99434.34;;;11.10;49.49
5455;BME280;2750;49.050;9.250;2023-04-04T15:18:03;99431.34;;;11.20;49.91
5455;BME280;2750;49.050;9.250;2023-04-04T15:23:06;99429.38;;;11.27;48.89
5455;BME280;2750;49.050;9.250;2023-04-04T15:28:07;99429.91;;;10.90;49.67
5455;BME280;2750;49.050;9.250;2023-04-04T15:33:09;99420.34;;;10.44;49.63
5455;BME280;2750;49.050;9.250;2023-04-04T15:38:12;99423.72;;;10.92;49.92
5455;BME280;2750;49.050;9.250;2023-04-04T15:43:14;99421.06;;;10.72;49.45
5455;BME280;2750;49.050;9.250;2023-04-04T15:48:15;99418.22;;;11.01;49.16
5455;BME280;2750;49.050;9.250;2023-04-04T15:53:18;99416.81;;;10.22;50.13
5455;BME280;2750;49.050;9.250;2023-04-04T15:58:20;99410.56;;;11.42;49.65
5455;BME280;2750;49.050;9.250;2023-04-04T16:03:21;99411.72;;;10.90;48.95
5455;BME280;2750;49.050;9.250;2023-04-04T16:08:26;99409.75;;;10.96;49.06
5455;BME280;2750;49.050;9.250;2023-04-04T16:13:27;99406.25;;;10.51;49.11
5455;BME280;2750;49.050;9.250;2023-04-04T16:18:29;99400.00;;;10.33;49.90
5455;BME280;2750;49.050;9.250;2023-04-04T16:23:32;99407.34;;;11.35;49.28
5455;BME280;2750;49.050;9.250;2023-04-04T16:28:34;99405.75;;;10.17;49.77
5455;BME280;2750;49.050;9.250;2023-04-04T16:33:35;99405.94;;;10.60;49.50
5455;BME280;2750;49.050;9.250;2023-04-04T16:38:38;99393.56;;;10.43;50.15
5455;BME280;2750;49.050;9.250;2023-04-04T16:43:40;99398.69;;;10.45;50.28
5455;BME280;2750;49.050;9.250;2023-04-04T16:48:42;99407.84;;;10.05;50.99
5455;BME280;2750;49.050;9.250;2023-04-04T16:53:45;99399.94;;;10.08;50.45
5455;BME280;2750;49.050;9.250;2023-04-04T16:58:46;99395.53;;;9.61;51.77
5455;BME280;2750;49.050;9.250;2023-04-04T17:03:48;99395.94;;;8.35;52.46
5455;BME280;2750;49.050;9.250;2023-04-04T17:08:51;99404.50;;;8.03;53.55
5455;BME280;2750;49.050;9.250;2023-04-04T17:13:53;99402.31;;;7.89;53.68
5455;BME280;2750;49.050;9.250;2023-04-04T17:18:54;99408.75;;;7.73;54.90
5455;BME280;2750;49.050;9.250;2023-04-04T17:23:57;99406.97;;;8.07;55.62
5455;BME280;2750;49.050;9.250;2023-04-04T17:28:59;99404.22;;;8.13;54.87
5455;BME280;2750;49.050;9.250;2023-04-04T17:34:00;99407.31;;;8.28;55.20
5455;BME280;2750;49.050;9.250;2023-04-04T17:39:03;99399.97;;;7.79;56.64
5455;BME280;2750;49.050;9.250;2023-04-04T17:44:06;99401.06;;;7.70;56.72
5455;BME280;2750;49.050;9.250;2023-04-04T17:49:07;99405.56;;;7.62;57.31
5455;BME280;2750;49.050;9.250;2023-04-04T17:54:10;99409.13;;;7.56;57.30
5455;BME280;2750;49.050;9.250;2023-04-04T17:59:12;99407.84;;;7.39;57.25
5455;BME280;2750;49.050;9.250;2023-04-04T18:04:13;99411.66;;;7.24;56.91
5455;BME280;2750;49.050;9.250;2023-04-04T18:09:16;99396.13;;;7.26;57.55
5455;BME280;2750;49.050;9.250;2023-04-04T18:14:18;99414.78;;;7.00;58.17
5455;BME280;2750;49.050;9.250;2023-04-04T18:19:20;99412.09;;;7.04;58.33
5455;BME280;2750;49.050;9.250;2023-04-04T18:24:22;99418.97;;;7.04;58.53
5455;BME280;2750;49.050;9.250;2023-04-04T18:29:25;99416.75;;;6.87;58.65
5455;BME280;2750;49.050;9.250;2023-04-04T18:34:26;99412.78;;;6.71;59.00
5455;BME280;2750;49.050;9.250;2023-04-04T18:39:29;99414.06;;;6.52;59.52
5455;BME280;2750;49.050;9.250;2023-04-04T18:44:31;99413.22;;;6.51;60.36
5455;BME280;2750;49.050;9.250;2023-04-04T18:49:33;99417.84;;;6.36;60.50
5455;BME280;2750;49.050;9.250;2023-04-04T18:54:36;99429.16;;;6.27;60.79
5455;BME280;2750;49.050;9.250;2023-04-04T18:59:38;99434.50;;;6.16;60.94
5455;BME280;2750;49.050;9.250;2023-04-04T19:04:39;99429.31;;;6.18;61.40
5455;BME280;2750;49.050;9.250;2023-04-04T19:09:43;99437.59;;;6.35;60.78
5455;BME280;2750;49.050;9.250;2023-04-04T19:14:45;99433.25;;;6.37;61.11
5455;BME280;2750;49.050;9.250;2023-04-04T19:19:47;99436.09;;;7.08;60.51
5455;BME280;2750;49.050;9.250;2023-04-04T19:24:49;99436.00;;;7.11;59.51
5455;BME280;2750;49.050;9.250;2023-04-04T19:29:52;99441.25;;;7.08;60.85
5455;BME280;2750;49.050;9.250;2023-04-04T19:34:54;99448.25;;;6.60;62.20
5455;BME280;2750;49.050;9.250;2023-04-04T19:39:57;99446.91;;;6.41;63.08
5455;BME280;2750;49.050;9.250;2023-04-04T19:44:59;99440.09;;;6.38;62.34
5455;BME280;2750;49.050;9.250;2023-04-04T19:50:01;99438.81;;;6.14;62.10
5455;BME280;2750;49.050;9.250;2023-04-04T19:55:07;99449.06;;;6.17;61.61
5455;BME280;2750;49.050;9.250;2023-04-04T20:00:10;99453.28;;;6.21;62.03
5455;BME280;2750;49.050;9.250;2023-04-04T20:10:54;99454.28;;;6.14;62.54
5455;BME280;2750;49.050;9.250;2023-04-04T20:16:01;99458.56;;;6.15;61.97
5455;BME280;2750;49.050;9.250;2023-04-04T20:21:06;99458.97;;;5.93;62.77
5455;BME280;2750;49.050;9.250;2023-04-04T20:26:09;99454.75;;;5.89;63.51
5455;BME280;2750;49.050;9.250;2023-04-04T20:31:15;99455.25;;;5.55;64.30
5455;BME280;2750;49.050;9.250;2023-04-04T20:36:29;99453.84;;;5.35;64.95
5455;BME280;2750;49.050;9.250;2023-04-04T20:41:33;99461.28;;;4.93;65.99
5455;BME280;2750;49.050;9.250;2023-04-04T20:46:34;99455.25;;;4.97;66.10
5455;BME280;2750;49.050;9.250;2023-04-04T20:51:36;99456.84;;;5.04;66.13
5455;BME280;2750;49.050;9.250;2023-04-04T20:56:47;99462.66;;;5.18;65.60
5455;BME280;2750;49.050;9.250;2023-04-04T21:02:01;99467.00;;;5.15;65.68
5455;BME280;2750;49.050;9.250;2023-04-04T21:07:05;99469.72;;;5.03;65.71
5455;BME280;2750;49.050;9.250;2023-04-04T21:12:09;99461.19;;;4.99;65.70
5455;BME280;2750;49.050;9.250;2023-04-04T21:17:10;99464.63;;;5.01;65.99
5455;BME280;2750;49.050;9.250;2023-04-04T21:22:12;99462.81;;;5.09;66.23
5455;BME280;2750;49.050;9.250;2023-04-04T21:27:32;99462.25;;;4.83;66.66
5455;BME280;2750;49.050;9.250;2023-04-04T21:32:34;99465.00;;;4.69;66.89
5455;BME280;2750;49.050;9.250;2023-04-04T21:37:36;99467.94;;;4.39;67.10
5455;BME280;2750;49.050;9.250;2023-04-04T21:42:39;99460.22;;;4.41;67.85
5455;BME280;2750;49.050;9.250;2023-04-04T21:47:41;99465.19;;;4.53;67.39
5455;BME280;2750;49.050;9.250;2023-04-04T21:52:43;99469.34;;;4.67;66.85
5455;BME280;2750;49.050;9.250;2023-04-04T21:57:46;99468.50;;;4.64;67.17
5455;BME280;2750;49.050;9.250;2023-04-04T22:02:47;99467.00;;;4.46;67.26
5455;BME280;2750;49.050;9.250;2023-04-04T22:07:49;99458.63;;;4.29;67.66
5455;BME280;2750;49.050;9.250;2023-04-04T22:12:52;99457.16;;;4.05;68.07
5455;BME280;2750;49.050;9.250;2023-04-04T22:17:54;99463.69;;;4.37;67.76
5455;BME280;2750;49.050;9.250;2023-04-04T22:23:03;99465.56;;;4.21;67.91
5455;BME280;2750;49.050;9.250;2023-04-04T22:28:06;99472.59;;;4.02;68.61
5455;BME280;2750;49.050;9.250;2023-04-04T22:33:08;99460.50;;;4.10;68.28
5455;BME280;2750;49.050;9.250;2023-04-04T22:38:11;99455.47;;;4.00;68.94
5455;BME280;2750;49.050;9.250;2023-04-04T22:43:15;99457.19;;;3.99;68.83
5455;BME280;2750;49.050;9.250;2023-04-04T22:48:16;99465.41;;;3.37;69.54
5455;BME280;2750;49.050;9.250;2023-04-04T22:53:22;99457.91;;;3.04;70.68
5455;BME280;2750;49.050;9.250;2023-04-04T22:58:25;99456.09;;;3.19;70.77
5455;BME280;2750;49.050;9.250;2023-04-04T23:03:27;99460.44;;;3.13;70.27
5455;BME280;2750;49.050;9.250;2023-04-04T23:08:28;99456.16;;;3.13;70.90
5455;BME280;2750;49.050;9.250;2023-04-04T23:13:31;99453.75;;;2.84;72.31
5455;BME280;2750;49.050;9.250;2023-04-04T23:18:33;99449.63;;;2.52;74.19
5455;BME280;2750;49.050;9.250;2023-04-04T23:23:35;99443.66;;;2.47;74.66
5455;BME280;2750;49.050;9.250;2023-04-04T23:28:38;99433.38;;;2.56;74.20
5455;BME280;2750;49.050;9.250;2023-04-04T23:33:39;99436.69;;;2.77;73.31
5455;BME280;2750;49.050;9.250;2023-04-04T23:38:41;99434.94;;;2.85;74.37
5455;BME280;2750;49.050;9.250;2023-04-04T23:43:44;99439.38;;;2.52;75.48
5455;BME280;2750;49.050;9.250;2023-04-04T23:48:46;99424.69;;;2.90;73.80
5455;BME280;2750;49.050;9.250;2023-04-04T23:53:47;99423.75;;;3.03;72.88
5455;BME280;2750;49.050;9.250;2023-04-04T23:58:50;99415.25;;;2.92;73.38
